NEODyS-2

Near Earth Objects - Dynamic Site
NEODyS ∴ Observatories ∴ Site 691 ∴ Obs & residuals
Contact »
691  ▹ 
OBSERVATIONS AND RESIDUALS

691-Steward Observatory, Kitt Peak-Spacewatch

Detections | Residuals | Detections & Residuals

[1-200] [201-400] [401-600] [601-800] [801-1000] [1001-1200] [1201-1400] [1401-1600] [1601-1800] [1801-2000] [2001-2200] [2201-2400] [2401-2600] [2601-2800] [2801-3000] [3001-3200] [3201-3400] [3401-3600] [3601-3800] [3801-4000] [4001-4200] [4201-4400] [4401-4600] [4601-4800] [4801-5000] [5001-5200] [5201-5400] [5401-5600] [5601-5800] [5801-6000] [6001-6200] [6201-6400] [6401-6600] [6601-6800] [6801-7000] [7001-7200] [7201-7400] [7401-7600] [7601-7800] [7801-8000] [8001-8200] [8201-8400] [8401-8600] [8601-8800] [8801-9000] [9001-9200] [9201-9400] [9401-9600] [9601-9800] [9801-10000] [10001-10200] [10201-10400] [10401-10600] [10601-10800] [10801-11000] [11001-11200] [11201-11400] [11401-11600] [11601-11800] [11801-12000] [12001-12200] [12201-12400] [12401-12600] [12601-12800] [12801-13000] [13001-13200] [13201-13400] [13401-13600] [13601-13800] [13801-14000] [14001-14200] [14201-14400] [14401-14600] [14601-14800] [14801-15000] [15001-15200] [15201-15400] [15401-15600] [15601-15800] [15801-16000] [16001-16200] [16201-16400] [16401-16600] [16601-16800] [16801-17000] [17001-17200] [17201-17400] [17401-17600] [17601-17800] [17801-18000] [18001-18200] [18201-18400] [18401-18600] [18601-18800] [18801-19000] [19001-19200] [19201-19400] [19401-19600] [19601-19800] [19801-20000] [20001-20200] [20201-20400] [20401-20600] [20601-20800] [20801-21000] [21001-21200] [21201-21400] [21401-21600] [21601-21800] [21801-22000] [22001-22200] [22201-22400] [22401-22600] [22601-22800] [22801-23000] [23001-23200] [23201-23400] [23401-23600] [23601-23800] [23801-24000] [24001-24200] [24201-24400] [24401-24600] [24601-24800] [24801-25000] [25001-25200] [25201-25400] [25401-25600] [25601-25800] [25801-26000] [26001-26200] [26201-26400] [26401-26600] [26601-26800] [26801-27000] [27001-27200] [27201-27400] [27401-27600] [27601-27800] [27801-28000] [28001-28200] [28201-28400] [28401-28600] [28601-28800] [28801-29000] [29001-29200] [29201-29400] [29401-29600] [29601-29800] [29801-30000] [30001-30200] [30201-30400] [30401-30600] [30601-30800] [30801-31000] [31001-31200] [31201-31400] [31401-31600] [31601-31800] [31801-32000] [32001-32200] [32201-32400] [32401-32600] [32601-32800] [32801-33000] [33001-33200] [33201-33400] [33401-33600] [33601-33800] [33801-34000] [34001-34200] [34201-34400] [34401-34600] [34601-34800] [34801-35000] [35001-35200] [35201-35400] [35401-35600] [35601-35800] [35801-36000] [36001-36200] [36201-36400] [36401-36600] [36601-36800] [36801-37000] [37001-37200] [37201-37400] [37401-37600] [37601-37800] [37801-38000] [38001-38200] [38201-38400] [38401-38600] [38601-38800] [38801-39000] [39001-39200] [39201-39400] [39401-39600] [39601-39800] [39801-40000] [40001-40200] [40201-40400] [40401-40600] [40601-40800] [40801-41000] [41001-41200] [41201-41400] [41401-41600] [41601-41800] [41801-42000] [42001-42200] [42201-42400] [42401-42600] [42601-42800] [42801-43000] [43001-43200] [43201-43400] [43401-43600] [43601-43800] [43801-44000] [44001-44200] [44201-44400] [44401-44600] [44601-44800] [44801-45000] [45001-45200] [45201-45400] [45401-45600] [45601-45800] [45801-46000] [46001-46200] [46201-46400] [46401-46600] [46601-46800] [46801-47000] [47001-47200] [47201-47400] [47401-47600] [47601-47800] [47801-48000] [48001-48200] [48201-48400] [48401-48600] [48601-48800] [48801-49000] [49001-49200] [49201-49400] [49401-49600] [49601-49800] [49801-50000] [50001-50200] [50201-50388]

Designation T Tech N Date Right Ascension Declination Apparent Magnitude Star Catalog Site code χ Used A Used M
yr-mo-day precision hr:min:sec precision rms F bias residual deg min sec precision rms F bias residual mag/col rms residual
2013AA2 O C K 2017-11-25.52433 1.000E-05 10:38:41.920 1.500E-01 0.500 F 0.092 0.153 +03° 58' 02.30" 1.000E-01 0.500 F 0.071 0.462 21.5 R 0.70 0.27 o 691 0.98 Yes Yes
2013AA2 O C K 2017-11-25.53216 1.000E-05 10:38:42.610 1.500E-01 0.500 F 0.092 0.138 +03° 57' 58.70" 1.000E-01 0.500 F 0.071 0.144 21.4 R 0.70 0.17 o 691 0.41 Yes Yes
2013AA2 O C K 2017-11-25.53999 1.000E-05 10:38:43.320 1.500E-01 0.500 F 0.092 0.427 +03° 57' 56.00" 1.000E-01 0.500 F 0.071 0.727 21.0 R 0.70 -0.23 o 691 1.72 Yes Yes
2017WG1 O C K 2017-11-26.16688 1.000E-05 01:54:31.220 1.500E-01 0.500 F -0.240 0.457 -19° 22' 10.30" 1.000E-01 0.500 F 0.100 -0.711 o 691 1.72 Yes No
2013UP8 O C K 2017-11-26.17153 1.000E-05 01:34:37.940 1.500E-01 0.500 F -0.223 -0.107 -27° 53' 55.30" 1.000E-01 0.500 F 0.255 0.047 21.3 R 0.70 0.42 o 691 0.24 Yes Yes
2017WG1 O C K 2017-11-26.18226 1.000E-05 01:54:36.190 1.500E-01 0.500 F -0.240 0.378 -19° 23' 37.70" 1.000E-01 0.500 F 0.100 0.203 19.4 R 0.70 -0.59 o 691 0.87 Yes Yes
2013UP8 O C K 2017-11-26.18693 1.000E-05 01:34:37.070 1.500E-01 0.500 F -0.223 -0.319 -27° 53' 40.50" 1.000E-01 0.500 F 0.255 -0.164 o 691 0.72 Yes No
2017WG1 O C K 2017-11-26.19763 1.000E-05 01:54:41.160 1.500E-01 0.500 F -0.240 0.397 -19° 25' 05.90" 1.000E-01 0.500 F 0.100 0.082 19.0 R 0.70 -0.99 o 691 0.82 Yes Yes
2013UP8 O C K 2017-11-26.20228 1.000E-05 01:34:36.200 1.500E-01 0.500 F -0.223 -0.573 -27° 53' 25.40" 1.000E-01 0.500 F 0.255 -0.043 21.4 R 0.70 0.52 o 691 1.15 Yes Yes
2017VG1 O C 2017-11-26.21076 1.000E-05 03:32:34.360 1.500E-01 0.500 F -0.416 0.070 -07° 30' 40.30" 1.000E-01 0.500 F 0.096 -0.205 20.3 V 0.70 -0.05 o 691 0.44 Yes Yes
2017VG1 O C 2017-11-26.21979 1.000E-05 03:32:33.270 1.500E-01 0.500 F -0.416 -0.376 -07° 30' 48.90" 1.000E-01 0.500 F 0.096 0.126 20.4 V 0.70 0.05 o 691 0.80 Yes Yes
2017VG1 O C 2017-11-26.22897 1.000E-05 03:32:32.240 1.500E-01 0.500 F -0.416 0.410 -07° 30' 58.00" 1.000E-01 0.500 F 0.096 0.059 20.7 V 0.70 0.34 o 691 0.84 Yes Yes
2017SV20 O C H 2017-11-26.23867 1.000E-05 03:29:27.520 1.500E-01 0.500 F -0.186 -0.757 -23° 08' 51.50" 1.000E-01 0.500 F 0.176 -0.152 20.8 R 0.70 0.44 o 691 1.55 Yes Yes
2017TN6 O C K 2017-11-26.24992 1.000E-05 02:20:00.140 1.500E-01 0.500 F -0.265 0.016 +17° 39' 28.90" 1.000E-01 0.500 F 0.277 0.236 22.0 R 0.70 0.46 o 691 0.48 Yes Yes
2017SV20 O C H 2017-11-26.26068 1.000E-05 03:29:24.830 1.500E-01 0.500 F -0.186 -0.392 -23° 08' 36.30" 1.000E-01 0.500 F 0.176 0.124 20.9 R 0.70 0.54 o 691 0.82 Yes Yes
2017TN6 O C K 2017-11-26.27209 1.000E-05 02:19:59.150 1.500E-01 0.500 F -0.265 0.029 +17° 39' 31.10" 1.000E-01 0.500 F 0.277 -0.109 21.2 R 0.70 -0.34 o 691 0.23 Yes Yes
2017SV20 O C H 2017-11-26.28295 1.000E-05 03:29:22.120 1.500E-01 0.500 F -0.186 0.144 -23° 08' 21.20" 1.000E-01 0.500 F 0.176 0.036 o 691 0.30 Yes No
2017TN6 O C K 2017-11-26.29443 1.000E-05 02:19:58.150 1.500E-01 0.500 F -0.265 -0.086 +17° 39' 34.20" 1.000E-01 0.500 F 0.277 0.491 22.1 R 0.70 0.55 o 691 1.02 Yes Yes
2017WY O C K 2017-11-26.30904 1.000E-05 01:45:48.730 1.500E-01 0.500 F -0.127 -0.369 +08° 48' 37.30" 1.000E-01 0.500 F 0.304 -0.160 o 691 0.86 Yes No
2017WY O C K 2017-11-26.32855 1.000E-05 01:45:44.370 1.500E-01 0.500 F -0.127 0.295 +08° 49' 43.00" 1.000E-01 0.500 F 0.304 -0.119 o 691 0.68 Yes No
2017WY O C K 2017-11-26.34807 1.000E-05 01:45:40.000 1.500E-01 0.500 F -0.127 0.516 +08° 50' 48.70" 1.000E-01 0.500 F 0.304 -0.079 o 691 1.12 Yes No
2017VE13 O C K 2017-11-26.43584 1.000E-05 05:43:12.740 1.500E-01 0.500 F -0.191 0.265 +13° 58' 28.10" 1.000E-01 0.500 F 0.180 -0.033 o 691 0.60 Yes No
2017VE13 O C K 2017-11-26.45638 1.000E-05 05:43:20.410 1.500E-01 0.500 F -0.191 0.017 +13° 58' 55.60" 1.000E-01 0.500 F 0.180 0.088 o 691 0.19 Yes No
2017VE13 O C K 2017-11-26.47696 1.000E-05 05:43:28.150 1.500E-01 0.500 F -0.191 -0.171 +13° 59' 22.80" 1.000E-01 0.500 F 0.180 0.257 o 691 0.67 Yes No
2015DC200 O C K 2017-11-26.48665 1.000E-05 09:15:42.350 1.500E-01 0.500 F 0.053 -0.343 +10° 31' 13.90" 1.000E-01 0.500 F 0.250 0.023 o 691 0.71 Yes No
2015KJ57 O C K 2017-11-26.49602 1.000E-05 08:15:29.860 1.500E-01 0.500 F -0.047 -0.009 +26° 41' 43.10" 1.000E-01 0.500 F 0.227 -0.080 21.5 R 0.70 -0.13 o 691 0.16 Yes Yes
2015DC200 O C K 2017-11-26.51117 1.000E-05 09:15:34.830 1.500E-01 0.500 F 0.053 -0.191 +10° 31' 38.60" 1.000E-01 0.500 F 0.250 0.034 o 691 0.40 Yes No
2015KJ57 O C K 2017-11-26.51927 1.000E-05 08:15:28.350 1.500E-01 0.500 F -0.047 0.566 +26° 41' 53.20" 1.000E-01 0.500 F 0.227 0.301 o 691 1.29 Yes No
2015DC200 O C K 2017-11-26.53285 1.000E-05 09:15:28.170 1.500E-01 0.500 F 0.070 -0.200 +10° 32' 00.60" 1.000E-01 0.500 F 0.245 0.265 o 691 0.68 Yes No
2017WW12 O C K 2017-11-27.09925 1.000E-05 01:27:14.230 1.500E-01 0.500 F -0.173 -0.086 -02° 55' 43.80" 1.000E-01 0.500 F 0.192 0.081 o 691 0.24 Yes No
2005XB1 O C K 2017-11-27.10916 1.000E-05 01:31:56.070 1.500E-01 0.500 F -0.413 -0.106 -06° 07' 46.60" 1.000E-01 0.500 F 0.124 -0.318 o 691 0.68 Yes No
2017WW12 O C K 2017-11-27.11372 1.000E-05 01:27:14.720 1.500E-01 0.500 F -0.173 -0.129 -02° 56' 21.40" 1.000E-01 0.500 F 0.192 0.109 o 691 0.34 Yes No
2005XB1 O C K 2017-11-27.12365 1.000E-05 01:31:58.260 1.500E-01 0.500 F -0.413 0.165 -06° 06' 15.80" 1.000E-01 0.500 F 0.124 -0.074 o 691 0.36 Yes No
2017WW12 O C K 2017-11-27.12822 1.000E-05 01:27:15.210 1.500E-01 0.500 F -0.173 -0.136 -02° 56' 59.20" 1.000E-01 0.500 F 0.192 0.001 o 691 0.27 Yes No
2005XB1 O C K 2017-11-27.13819 1.000E-05 01:32:00.400 1.500E-01 0.500 F -0.413 -0.240 -06° 04' 45.40" 1.000E-01 0.500 F 0.124 -0.470 o 691 1.07 Yes No
2017WZ O C K 2017-11-27.14271 1.000E-05 01:38:54.150 1.500E-01 0.500 F -0.092 0.054 +10° 13' 21.70" 1.000E-01 0.500 F 0.289 0.307 o 691 0.64 Yes No
2017VN15 O C K 2017-11-27.15212 1.000E-05 01:08:05.530 1.500E-01 0.500 F -0.139 -0.085 +11° 38' 51.70" 1.000E-01 0.500 F 0.367 -0.035 o 691 0.19 Yes No
2017WZ O C K 2017-11-27.15451 1.000E-05 01:38:54.620 1.500E-01 0.500 F -0.092 -0.098 +10° 14' 20.80" 1.000E-01 0.500 F 0.289 -0.102 o 691 0.29 Yes No
2017VN15 O C K 2017-11-27.16392 1.000E-05 01:08:06.590 1.500E-01 0.500 F -0.139 0.032 +11° 39' 43.60" 1.000E-01 0.500 F 0.367 0.020 o 691 0.08 Yes No
2017WZ O C K 2017-11-27.16631 1.000E-05 01:38:55.090 1.500E-01 0.500 F -0.092 -0.170 +10° 15' 20.20" 1.000E-01 0.500 F 0.289 -0.167 o 691 0.49 Yes No
2017VN15 O C K 2017-11-27.17573 1.000E-05 01:08:07.650 1.500E-01 0.500 F -0.139 0.138 +11° 40' 35.30" 1.000E-01 0.500 F 0.367 -0.124 o 691 0.38 Yes No
2017UC45 O C K 2017-11-27.17882 1.000E-05 01:21:23.050 1.500E-01 0.500 F -0.245 -0.809 -21° 58' 02.40" 1.000E-01 0.500 F 0.041 -0.198 o 691 1.69 Yes No
2017WG1 O C K 2017-11-27.18543 1.000E-05 02:00:20.870 1.500E-01 0.500 F -0.198 1.870 -20° 57' 27.00" 1.000E-01 0.500 F 0.079 0.549 o 691 3.86 No No
2017UC45 O C K 2017-11-27.19522 1.000E-05 01:21:15.880 1.500E-01 0.500 F -0.245 -1.239 -21° 58' 53.00" 1.000E-01 0.500 F 0.041 0.226 o 691 2.56 Yes No
2017WG1 O C K 2017-11-27.20184 1.000E-05 02:00:26.180 1.500E-01 0.500 F -0.198 1.171 -20° 58' 57.60" 1.000E-01 0.500 F 0.079 0.329 o 691 2.46 Yes No
2017UC45 O C K 2017-11-27.21169 1.000E-05 01:21:08.710 1.500E-01 0.500 F -0.245 -1.188 -21° 59' 44.60" 1.000E-01 0.500 F 0.041 -0.304 o 691 2.49 Yes No
2017WG1 O C K 2017-11-27.21832 1.000E-05 02:00:31.570 1.500E-01 0.500 F -0.198 1.283 -21° 00' 28.60" 1.000E-01 0.500 F 0.079 -0.125 o 691 2.61 Yes No
2017SV20 O C K 2017-11-27.22858 1.000E-05 03:27:30.100 1.500E-01 0.500 F -0.324 -0.266 -22° 57' 16.30" 1.000E-01 0.500 F 0.147 -0.113 o 691 0.58 Yes No
2008AE O C 2017-11-27.22858 1.000E-05 03:29:02.090 1.500E-01 0.500 F -0.324 -0.283 -22° 57' 00.90" 1.000E-01 0.500 F 0.147 0.033 19.7 V 0.70 0.03 o 691 0.57 Yes Yes
2017SV20 O C K 2017-11-27.24479 1.000E-05 03:27:28.120 1.500E-01 0.500 F -0.324 -0.364 -22° 57' 03.80" 1.000E-01 0.500 F 0.147 0.730 o 691 1.64 Yes No
2008AE O C 2017-11-27.24479 1.000E-05 03:29:00.300 1.500E-01 0.500 F -0.324 -0.275 -22° 56' 55.60" 1.000E-01 0.500 F 0.147 0.116 19.8 V 0.70 0.13 o 691 0.60 Yes Yes
2017VG1 O C K 2017-11-27.24992 1.000E-05 03:31:08.430 1.500E-01 0.500 F -0.416 0.030 -07° 46' 00.20" 1.000E-01 0.500 F 0.096 -0.159 o 691 0.33 Yes No
2017SV20 O C K 2017-11-27.26095 1.000E-05 03:27:26.130 1.500E-01 0.500 F -0.324 -0.677 -22° 56' 53.30" 1.000E-01 0.500 F 0.147 -0.436 o 691 1.61 Yes No
2008AE O C 2017-11-27.26095 1.000E-05 03:28:58.510 1.500E-01 0.500 F -0.324 -0.313 -22° 56' 50.50" 1.000E-01 0.500 F 0.147 -0.081 19.6 V 0.70 -0.07 o 691 0.65 Yes Yes
2017VG1 O C K 2017-11-27.26607 1.000E-05 03:31:06.680 1.500E-01 0.500 F -0.416 0.092 -07° 46' 13.00" 1.000E-01 0.500 F 0.096 0.174 o 691 0.40 Yes No
2017VB2 O C K 2017-11-27.27791 1.000E-05 03:08:45.170 1.500E-01 0.500 F -0.186 -0.347 +11° 40' 22.50" 1.000E-01 0.500 F 0.284 -0.252 20.3 R 0.70 -0.25 o 691 0.88 Yes Yes
2017WE13 O C K 2017-11-27.28270 1.000E-05 03:11:47.140 1.500E-01 0.500 F -0.322 0.199 +16° 59' 24.00" 1.000E-01 0.500 F 0.259 0.092 o 691 0.46 Yes No
2017VB2 O C K 2017-11-27.29033 1.000E-05 03:08:46.020 1.500E-01 0.500 F -0.186 -0.446 +11° 40' 03.60" 1.000E-01 0.500 F 0.284 0.129 20.2 R 0.70 -0.35 o 691 0.95 Yes Yes
2017WE13 O C K 2017-11-27.29513 1.000E-05 03:11:49.970 1.500E-01 0.500 F -0.322 0.071 +17° 00' 23.80" 1.000E-01 0.500 F 0.259 0.113 o 691 0.28 Yes No
2017VB2 O C K 2017-11-27.30273 1.000E-05 03:08:46.910 1.500E-01 0.500 F -0.186 0.028 +11° 39' 43.80" 1.000E-01 0.500 F 0.284 -0.401 20.4 R 0.70 -0.15 o 691 0.83 Yes Yes
2017WE13 O C K 2017-11-27.30753 1.000E-05 03:11:52.850 1.500E-01 0.500 F -0.322 0.548 +17° 01' 22.90" 1.000E-01 0.500 F 0.259 -0.278 o 691 1.26 Yes No
2017WV12 O C H 2017-11-27.31577 1.000E-05 03:48:11.600 1.500E-01 0.500 F -0.196 -0.246 +24° 20' 54.20" 1.000E-01 0.500 F 0.322 0.605 20.9 R 0.70 0.64 o 691 1.34 Yes Yes
2017VH1 O C K 2017-11-27.31746 1.000E-05 03:36:43.010 1.500E-01 0.500 F -0.395 0.796 +10° 15' 30.70" 1.000E-01 0.500 F 0.220 0.060 o 691 1.66 Yes No
2014WG365 O C 2017-11-27.32322 1.000E-05 03:34:01.490 1.500E-01 0.500 F -0.244 -0.130 +03° 13' 47.00" 1.000E-01 0.500 F 0.154 -0.085 19.8 V 0.70 -0.07 o 691 0.31 Yes Yes
2017VH1 O C K 2017-11-27.32692 1.000E-05 03:36:45.170 1.500E-01 0.500 F -0.395 0.368 +10° 14' 47.70" 1.000E-01 0.500 F 0.220 0.171 o 691 0.84 Yes No
2014WG365 O C 2017-11-27.33266 1.000E-05 03:33:59.370 1.500E-01 0.500 F -0.244 -0.161 +03° 14' 02.60" 1.000E-01 0.500 F 0.154 -0.526 20.1 V 0.70 0.23 o 691 1.10 Yes Yes
2017WV12 O C H 2017-11-27.33470 1.000E-05 03:48:11.160 1.500E-01 0.500 F -0.196 -0.029 +24° 20' 18.70" 1.000E-01 0.500 F 0.322 0.166 21.3 R 0.70 1.04 o 691 0.34 Yes Yes
2017VH1 O C K 2017-11-27.33636 1.000E-05 03:36:47.360 1.500E-01 0.500 F -0.332 0.358 +10° 14' 04.30" 1.000E-01 0.500 F 0.266 -0.256 o 691 0.92 Yes No
2014WG365 O C 2017-11-27.34211 1.000E-05 03:33:57.230 1.500E-01 0.500 F -0.244 -0.476 +03° 14' 19.20" 1.000E-01 0.500 F 0.154 0.014 19.9 V 0.70 0.03 o 691 0.96 Yes Yes
2017WF29 O C K 2017-11-27.34363 1.000E-05 03:56:23.740 1.500E-01 0.500 F -0.148 -0.694 +21° 05' 58.70" 1.000E-01 0.500 F 0.099 -0.304 o 691 1.55 Yes No
2017UZ51 O C K 2017-11-27.34935 1.000E-05 03:36:41.610 1.500E-01 0.500 F -0.299 -0.052 +14° 32' 08.20" 1.000E-01 0.500 F 0.131 0.356 20.4 R 0.70 -0.42 o 691 0.74 Yes Yes
2017WE29 O C K 2017-11-27.35484 1.000E-05 04:15:49.180 1.500E-01 0.500 F -0.303 0.345 +22° 51' 32.80" 1.000E-01 0.500 F 0.258 -0.014 o 691 0.77 Yes No
2017WF29 O C K 2017-11-27.36392 1.000E-05 03:56:14.150 1.500E-01 0.500 F -0.148 -0.256 +21° 04' 20.30" 1.000E-01 0.500 F 0.099 0.487 o 691 1.13 Yes No
2017UZ51 O C K 2017-11-27.36962 1.000E-05 03:36:41.980 1.500E-01 0.500 F -0.299 0.097 +14° 31' 38.20" 1.000E-01 0.500 F 0.131 0.306 20.5 R 0.70 -0.32 o 691 0.66 Yes Yes
2017WE29 O C K 2017-11-27.37513 1.000E-05 04:15:52.460 1.500E-01 0.500 F -0.303 0.336 +22° 51' 34.30" 1.000E-01 0.500 F 0.258 -0.105 o 691 0.77 Yes No
2017WF29 O C K 2017-11-27.38421 1.000E-05 03:56:04.610 1.500E-01 0.500 F -0.148 -0.406 +21° 02' 41.00" 1.000E-01 0.500 F 0.099 0.566 o 691 1.44 Yes No
2017WE29 O C K 2017-11-27.39542 1.000E-05 04:15:55.760 1.500E-01 0.500 F -0.303 0.310 +22° 51' 35.70" 1.000E-01 0.500 F 0.258 -0.015 o 691 0.72 Yes No
2017WD16 O C K 2017-11-27.40833 1.000E-05 07:48:27.870 1.500E-01 0.500 F -0.006 0.482 +18° 05' 17.00" 1.000E-01 0.500 F 0.318 0.385 21.5 R 0.70 0.12 o 691 1.25 Yes Yes
2017WD16 O C K 2017-11-27.42107 1.000E-05 07:48:26.930 1.500E-01 0.500 F -0.006 -0.221 +18° 05' 09.10" 1.000E-01 0.500 F 0.318 0.220 21.2 R 0.70 -0.18 o 691 0.63 Yes Yes
2017WD16 O C K 2017-11-27.43388 1.000E-05 07:48:26.050 1.500E-01 0.500 F -0.006 0.033 +18° 05' 00.90" 1.000E-01 0.500 F 0.318 -0.169 21.3 R 0.70 -0.08 o 691 0.35 Yes Yes
2015DC200 O C K 2017-11-27.44604 1.000E-05 09:10:52.340 1.500E-01 0.500 F 0.069 -0.508 +10° 47' 18.10" 1.000E-01 0.500 F 0.162 0.142 o 691 1.09 Yes No
2017VV14 O C 2017-11-27.45373 1.000E-05 08:03:27.800 1.500E-01 0.500 F 0.016 -0.103 +27° 09' 54.20" 1.000E-01 0.500 F 0.264 0.275 20.8 V 0.70 0.04 o 691 0.59 Yes Yes
2015DC200 O C K 2017-11-27.45719 1.000E-05 09:10:48.910 1.500E-01 0.500 F 0.069 -0.047 +10° 47' 29.00" 1.000E-01 0.500 F 0.162 -0.229 o 691 0.48 Yes No
2017VV14 O C 2017-11-27.46542 1.000E-05 08:03:26.130 1.500E-01 0.500 F 0.016 -0.682 +27° 10' 05.70" 1.000E-01 0.500 F 0.264 0.252 20.4 V 0.70 -0.36 o 691 1.46 Yes Yes
2015DC200 O C K 2017-11-27.46973 1.000E-05 09:10:45.040 1.500E-01 0.500 F 0.069 0.326 +10° 47' 41.90" 1.000E-01 0.500 F 0.162 0.010 o 691 0.67 Yes No
2017VV14 O C 2017-11-27.47870 1.000E-05 08:03:24.330 1.500E-01 0.500 F 0.016 -0.037 +27° 10' 18.30" 1.000E-01 0.500 F 0.264 -0.213 20.9 V 0.70 0.14 o 691 0.44 Yes Yes
2015FO124 O C 2017-11-27.48657 1.000E-05 09:32:22.250 1.500E-01 0.500 F 0.203 -0.941 -16° 07' 49.10" 1.000E-01 0.500 F -0.112 0.954 19.3 V 0.70 -1.26 o 691 2.69 Yes Yes
2017QO17 O C K 2017-11-27.48860 1.000E-05 08:56:39.620 1.500E-01 0.500 F -0.018 0.454 -02° 39' 12.90" 1.000E-01 0.500 F 0.062 -0.445 o 691 1.28 Yes No
2015FO124 O C 2017-11-27.49440 1.000E-05 09:32:22.530 1.500E-01 0.500 F 0.203 -0.442 -16° 07' 40.30" 1.000E-01 0.500 F -0.112 -0.119 19.9 V 0.70 -0.66 o 691 0.92 Yes Yes
2017QO17 O C K 2017-11-27.49642 1.000E-05 08:56:39.820 1.500E-01 0.500 F -0.018 -0.236 -02° 39' 02.70" 1.000E-01 0.500 F 0.062 0.567 21.2 R 0.70 0.06 o 691 1.25 Yes Yes
2015FO124 O C 2017-11-27.50215 1.000E-05 09:32:22.770 1.500E-01 0.500 F 0.203 -0.466 -16° 07' 30.10" 1.000E-01 0.500 F -0.112 0.284 19.8 V 0.70 -0.76 o 691 1.09 Yes Yes
2017QO17 O C K 2017-11-27.50417 1.000E-05 08:56:40.060 1.500E-01 0.500 F -0.018 -0.289 -02° 38' 53.70" 1.000E-01 0.500 F 0.062 0.457 21.2 R 0.70 0.06 o 691 1.09 Yes Yes
2015FH120 O C K 2017-12-07.05744 1.000E-05 21:16:17.470 1.500E-01 0.500 F -0.059 -0.329 -24° 29' 07.10" 1.000E-01 0.500 F 0.464 -0.093 o 691 0.68 Yes No
2015FH120 O C K 2017-12-07.06071 1.000E-05 21:16:17.430 1.500E-01 0.500 F -0.059 -0.174 -24° 29' 00.70" 1.000E-01 0.500 F 0.464 -0.059 o 691 0.37 Yes No
2015FH120 O C K 2017-12-07.06398 1.000E-05 21:16:17.430 1.500E-01 0.500 F -0.059 0.525 -24° 28' 54.20" 1.000E-01 0.500 F 0.464 0.072 o 691 1.06 Yes No
2017QL33 O C K 2017-12-07.06863 1.000E-05 21:32:15.130 1.500E-01 0.500 F -0.032 0.007 +00° 06' 12.70" 1.000E-01 0.500 F 0.326 0.023 19.7 R 0.70 -0.10 o 691 0.05 Yes Yes
2002LX64 O C K 2017-12-07.07161 1.000E-05 22:07:42.110 1.500E-01 0.500 F -0.052 -0.495 +02° 44' 53.20" 1.000E-01 0.500 F 0.354 -2.136 o 691 4.28 No No
2017VT14 O C K 2017-12-07.07831 1.000E-05 22:12:44.590 1.500E-01 0.500 F -0.050 -0.413 +10° 39' 08.90" 1.000E-01 0.500 F 0.205 0.299 o 691 1.04 Yes No
2002LX64 O C K 2017-12-07.08431 1.000E-05 22:07:38.750 1.500E-01 0.500 F -0.052 -0.051 +02° 44' 20.30" 1.000E-01 0.500 F 0.354 0.103 o 691 0.23 Yes No
2017VT14 O C K 2017-12-07.09102 1.000E-05 22:12:45.070 1.500E-01 0.500 F -0.050 -0.245 +10° 38' 29.30" 1.000E-01 0.500 F 0.205 0.462 o 691 1.07 Yes No
2017QL33 O C K 2017-12-07.09401 1.000E-05 21:32:16.100 1.500E-01 0.500 F -0.032 0.029 +00° 07' 24.40" 1.000E-01 0.500 F 0.326 0.017 19.5 R 0.70 -0.29 o 691 0.07 Yes Yes
2002LX64 O C K 2017-12-07.09700 1.000E-05 22:07:35.390 1.500E-01 0.500 F -0.052 0.285 +02° 43' 45.30" 1.000E-01 0.500 F 0.354 0.226 o 691 0.79 Yes No
2017VT14 O C K 2017-12-07.10369 1.000E-05 22:12:45.580 1.500E-01 0.500 F -0.050 0.056 +10° 37' 49.30" 1.000E-01 0.500 F 0.205 0.332 o 691 0.69 Yes No
2017SS19 O C 2017-12-07.11582 1.000E-05 23:22:56.480 1.500E-01 0.500 F -0.176 -0.498 -04° 03' 58.40" 1.000E-01 0.500 F 0.155 -0.079 20.0 V 0.70 0.36 o 691 1.02 Yes Yes
2017SS19 O C 2017-12-07.12786 1.000E-05 23:22:59.420 1.500E-01 0.500 F -0.176 -0.315 -04° 04' 03.70" 1.000E-01 0.500 F 0.155 -0.456 19.8 V 0.70 0.16 o 691 1.11 Yes Yes
2017SS19 O C 2017-12-07.13983 1.000E-05 23:23:02.330 1.500E-01 0.500 F -0.176 -0.373 -04° 04' 07.90" 1.000E-01 0.500 F 0.155 0.229 20.2 V 0.70 0.56 o 691 0.88 Yes Yes
2017RH15 O C K 2017-12-07.14395 1.000E-05 00:25:57.440 1.500E-01 0.500 F -0.257 0.607 -14° 05' 53.10" 1.000E-01 0.500 F 0.253 -0.122 o 691 1.26 Yes No
2006XY O C K 2017-12-07.14963 1.000E-05 00:05:51.660 1.500E-01 0.500 F -0.118 0.276 +13° 19' 52.90" 1.000E-01 0.500 F 0.293 0.077 17.6 R 0.70 -0.37 o 691 0.58 Yes Yes
2017XC O C K 2017-12-07.15215 1.000E-05 23:18:35.260 1.500E-01 0.500 F -0.144 0.491 +17° 52' 50.90" 1.000E-01 0.500 F 0.396 0.318 o 691 1.18 Yes No
2017RH15 O C K 2017-12-07.15701 1.000E-05 00:26:00.740 1.500E-01 0.500 F -0.257 0.337 -14° 05' 24.40" 1.000E-01 0.500 F 0.253 0.024 o 691 0.69 Yes No
2006XY O C K 2017-12-07.16261 1.000E-05 00:05:58.030 1.500E-01 0.500 F -0.107 0.156 +13° 19' 02.90" 1.000E-01 0.500 F 0.319 -0.051 17.6 R 0.70 -0.36 o 691 0.33 Yes Yes
2017XC O C K 2017-12-07.16492 1.000E-05 23:18:37.590 1.500E-01 0.500 F -0.144 0.429 +17° 54' 14.50" 1.000E-01 0.500 F 0.396 -0.120 o 691 0.90 Yes No
2017RH15 O C K 2017-12-07.16965 1.000E-05 00:26:03.900 1.500E-01 0.500 F -0.257 -0.533 -14° 04' 57.10" 1.000E-01 0.500 F 0.253 -0.421 o 691 1.39 Yes No
2017XC O C K 2017-12-07.17757 1.000E-05 23:18:39.900 1.500E-01 0.500 F -0.144 0.325 +17° 55' 37.60" 1.000E-01 0.500 F 0.396 -0.177 o 691 0.75 Yes No
2017WW12 O C K 2017-12-07.18297 1.000E-05 01:36:51.960 1.500E-01 0.500 F -0.209 0.148 -09° 35' 34.00" 1.000E-01 0.500 F 0.247 -0.010 o 691 0.30 Yes No
2014KT76 O C 2017-12-07.18873 1.000E-05 01:41:10.130 1.500E-01 0.500 F -0.280 0.376 -03° 37' 22.70" 1.000E-01 0.500 F 0.216 0.278 20.7 V 0.70 0.58 o 691 0.97 Yes Yes
2017WW12 O C K 2017-12-07.20002 1.000E-05 01:36:53.120 1.500E-01 0.500 F -0.209 0.282 -09° 36' 10.70" 1.000E-01 0.500 F 0.247 -0.319 o 691 0.86 Yes No
2014KT76 O C 2017-12-07.20579 1.000E-05 01:41:05.470 1.500E-01 0.500 F -0.280 -0.406 -03° 38' 16.90" 1.000E-01 0.500 F 0.216 0.125 20.1 V 0.70 -0.02 o 691 0.89 Yes Yes
2017WW12 O C K 2017-12-07.21668 1.000E-05 01:36:54.240 1.500E-01 0.500 F -0.209 0.161 -09° 36' 46.00" 1.000E-01 0.500 F 0.247 -0.104 o 691 0.39 Yes No
2014KT76 O C 2017-12-07.22244 1.000E-05 01:41:00.990 1.500E-01 0.500 F -0.280 -0.199 -03° 39' 10.00" 1.000E-01 0.500 F 0.216 -0.223 20.3 V 0.70 0.18 o 691 0.62 Yes Yes
2017WK14 O C K 2017-12-07.23298 1.000E-05 02:26:43.060 1.500E-01 0.500 F -0.279 0.016 -05° 05' 29.60" 1.000E-01 0.500 F 0.110 0.487 o 691 0.98 Yes No
2014WG365 O C 2017-12-07.24088 1.000E-05 02:57:07.660 1.500E-01 0.500 F -0.319 0.027 +08° 30' 24.10" 1.000E-01 0.500 F 0.301 0.573 19.8 V 0.70 -0.18 o 691 1.15 Yes Yes
2017WG2 O C 2017-12-07.24440 1.000E-05 04:10:42.530 1.500E-01 0.500 F -0.298 -0.403 -11° 01' 50.80" 1.000E-01 0.500 F 0.124 -0.033 19.4 V 0.70 -0.07 o 691 0.82 Yes Yes
2017WY13 O C K 2017-12-07.24783 1.000E-05 03:04:40.280 1.500E-01 0.500 F -0.296 0.217 +10° 55' 05.10" 1.000E-01 0.500 F 0.353 -0.036 o 691 0.45 Yes No
2017WK14 O C K 2017-12-07.25388 1.000E-05 02:26:50.270 1.500E-01 0.500 F -0.279 0.104 -05° 04' 40.70" 1.000E-01 0.500 F 0.110 0.151 o 691 0.37 Yes No
2014WG365 O C 2017-12-07.26177 1.000E-05 02:57:02.860 1.500E-01 0.500 F -0.319 0.052 +08° 31' 06.70" 1.000E-01 0.500 F 0.301 -0.200 19.9 V 0.70 -0.08 o 691 0.41 Yes Yes
2017WG2 O C 2017-12-07.26564 1.000E-05 04:10:35.440 1.500E-01 0.500 F -0.298 0.086 -11° 02' 07.30" 1.000E-01 0.500 F 0.124 -0.048 19.8 V 0.70 0.33 o 691 0.20 Yes Yes
2017WY13 O C K 2017-12-07.26904 1.000E-05 03:04:43.370 1.500E-01 0.500 F -0.296 0.394 +10° 54' 06.40" 1.000E-01 0.500 F 0.353 -0.055 o 691 0.81 Yes No
2014WG365 O C 2017-12-07.28296 1.000E-05 02:56:57.960 1.500E-01 0.500 F -0.319 -0.472 +08° 31' 50.90" 1.000E-01 0.500 F 0.301 0.040 19.8 V 0.70 -0.18 o 691 0.95 Yes Yes
2017WG2 O C 2017-12-07.28676 1.000E-05 04:10:28.320 1.500E-01 0.500 F -0.298 -0.353 -11° 02' 23.80" 1.000E-01 0.500 F 0.124 -0.259 19.4 V 0.70 -0.07 o 691 0.88 Yes Yes
2017WY13 O C K 2017-12-07.29014 1.000E-05 03:04:46.420 1.500E-01 0.500 F -0.296 0.156 +10° 53' 08.00" 1.000E-01 0.500 F 0.353 -0.096 o 691 0.37 Yes No
2017WX12 O C K 2017-12-07.32059 1.000E-05 04:05:36.330 1.500E-01 0.500 F -0.225 0.124 -06° 45' 42.90" 1.000E-01 0.500 F 0.147 -0.174 o 691 0.43 Yes No
2017WY12 O C K 2017-12-07.33135 1.000E-05 05:15:59.480 1.500E-01 0.500 F -0.086 0.512 -18° 19' 32.90" 1.000E-01 0.500 F -0.265 0.017 o 691 1.04 Yes No
2017WX12 O C K 2017-12-07.34395 1.000E-05 04:05:35.650 1.500E-01 0.500 F -0.225 0.257 -06° 44' 21.70" 1.000E-01 0.500 F 0.147 0.040 o 691 0.52 Yes No
2017WY12 O C K 2017-12-07.35471 1.000E-05 05:16:02.520 1.500E-01 0.500 F -0.086 0.677 -18° 20' 16.40" 1.000E-01 0.500 F -0.265 -0.083 o 691 1.39 Yes No
Vinciguerra O C 2017-12-07.40378 1.000E-05 03:16:34.000 1.500E-01 0.500 F -0.304 -0.149 +17° 51' 01.10" 1.000E-01 0.500 F 0.325 0.545 19.2 V 0.70 0.22 o 691 1.13 Yes Yes
Vinciguerra O C 2017-12-07.41294 1.000E-05 03:16:33.240 1.500E-01 0.500 F -0.304 -0.065 +17° 50' 52.50" 1.000E-01 0.500 F 0.325 -0.182 19.3 V 0.70 0.32 o 691 0.39 Yes Yes
Vinciguerra O C 2017-12-07.42212 1.000E-05 03:16:32.430 1.500E-01 0.500 F -0.304 -0.715 +17° 50' 44.70" 1.000E-01 0.500 F 0.325 -0.087 19.7 V 0.70 0.72 o 691 1.45 Yes Yes
2017SS19 O C K 2017-12-08.12610 1.000E-05 23:27:12.210 1.500E-01 0.500 F -0.298 0.185 -04° 10' 45.00" 1.000E-01 0.500 F 0.192 -0.202 19.1 R 0.70 -0.14 o 691 0.55 Yes Yes
2017SS19 O C K 2017-12-08.16537 1.000E-05 23:27:21.970 1.500E-01 0.500 F -0.298 0.301 -04° 11' 00.60" 1.000E-01 0.500 F 0.192 -0.524 19.8 R 0.70 0.56 o 691 1.22 Yes Yes
2015GF1 O C K 2017-12-08.21860 1.000E-05 00:52:29.780 1.500E-01 0.500 F -0.246 -0.530 +22° 58' 39.10" 1.000E-01 0.500 F 0.322 -0.091 o 691 1.12 Yes No
2017TC4 O C K 2017-12-08.22257 1.000E-05 00:57:59.870 1.500E-01 0.500 F -0.205 0.247 +28° 17' 51.10" 1.000E-01 0.500 F 0.176 -0.063 18.6 R 0.70 -1.14 o 691 0.52 Yes Yes
2017VN15 O C 2017-12-08.22648 1.000E-05 01:30:28.860 1.500E-01 0.500 F -0.221 0.123 +23° 46' 13.10" 1.000E-01 0.500 F 0.349 0.497 20.2 V 0.70 0.09 o 691 1.06 Yes Yes
2015GF1 O C K 2017-12-08.22966 1.000E-05 00:52:20.380 1.500E-01 0.500 F -0.246 -0.705 +22° 59' 05.60" 1.000E-01 0.500 F 0.322 0.039 o 691 1.47 Yes No
2017TC4 O C K 2017-12-08.23363 1.000E-05 00:58:01.560 1.500E-01 0.500 F -0.205 0.097 +28° 17' 31.60" 1.000E-01 0.500 F 0.176 -0.197 19.1 R 0.70 -0.64 o 691 0.44 Yes Yes
2017VN15 O C 2017-12-08.23755 1.000E-05 01:30:30.280 1.500E-01 0.500 F -0.221 0.111 +23° 46' 50.20" 1.000E-01 0.500 F 0.349 -0.082 20.5 V 0.70 0.39 o 691 0.28 Yes Yes
2015GF1 O C K 2017-12-08.24073 1.000E-05 00:52:10.980 1.500E-01 0.500 F -0.246 -0.846 +22° 59' 32.00" 1.000E-01 0.500 F 0.322 0.183 o 691 1.81 Yes No
2017TC4 O C K 2017-12-08.24472 1.000E-05 00:58:03.270 1.500E-01 0.500 F -0.205 0.072 +28° 17' 12.30" 1.000E-01 0.500 F 0.176 -0.029 19.2 R 0.70 -0.54 o 691 0.16 Yes Yes
2017VN15 O C 2017-12-08.24863 1.000E-05 01:30:31.710 1.500E-01 0.500 F -0.221 0.150 +23° 47' 28.20" 1.000E-01 0.500 F 0.349 0.263 20.3 V 0.70 0.19 o 691 0.63 Yes Yes
2017XB1 O C K 2017-12-08.31808 1.000E-05 03:29:34.960 1.500E-01 0.500 F -0.357 0.284 -07° 37' 55.10" 1.000E-01 0.500 F 0.108 0.782 o 691 1.68 Yes No
2017XB1 O C K 2017-12-08.33264 1.000E-05 03:29:33.670 1.500E-01 0.500 F -0.357 -0.559 -07° 37' 24.50" 1.000E-01 0.500 F 0.108 0.765 o 691 1.91 Yes No
2017XB1 O C K 2017-12-08.34721 1.000E-05 03:29:32.480 1.500E-01 0.500 F -0.357 -0.054 -07° 36' 54.20" 1.000E-01 0.500 F 0.108 0.372 o 691 0.76 Yes No
Vinciguerra O C 2017-12-08.38800 1.000E-05 03:15:15.460 1.500E-01 0.500 F -0.304 -0.606 +17° 37' 19.50" 1.000E-01 0.500 F 0.325 -0.326 19.6 V 0.70 0.60 o 691 1.38 Yes Yes
Vinciguerra O C 2017-12-08.39699 1.000E-05 03:15:14.750 1.500E-01 0.500 F -0.304 -0.240 +17° 37' 12.20" 1.000E-01 0.500 F 0.325 0.046 19.5 V 0.70 0.50 o 691 0.49 Yes Yes
Vinciguerra O C 2017-12-08.40603 1.000E-05 03:15:14.030 1.500E-01 0.500 F -0.304 0.002 +17° 37' 03.20" 1.000E-01 0.500 F 0.325 -1.232 19.3 V 0.70 0.30 o 691 2.47 Yes Yes
2017UZ4 O C H 2017-12-08.41675 1.000E-05 04:58:22.630 1.500E-01 0.500 F -0.137 0.253 -00° 29' 51.50" 1.000E-01 0.500 F 0.022 0.673 19.7 R 0.70 0.32 o 691 1.44 Yes Yes
2017UZ4 O C H 2017-12-08.42730 1.000E-05 04:58:22.110 1.500E-01 0.500 F -0.137 -0.156 -00° 29' 59.30" 1.000E-01 0.500 F 0.022 -0.748 19.7 R 0.70 0.32 o 691 1.53 Yes Yes
2017UZ4 O C H 2017-12-08.43786 1.000E-05 04:58:21.690 1.500E-01 0.500 F -0.137 0.892 -00° 30' 04.50" 1.000E-01 0.500 F 0.022 0.431 o 691 1.99 Yes No
2017UE45 O C 2017-12-08.52329 1.000E-05 12:02:55.440 1.500E-01 0.500 F 0.298 0.853 +05° 28' 44.90" 1.000E-01 0.500 F 0.192 -1.475 19.5 V 0.70 0.76 o 691 3.30 No Yes
2017UE45 O C 2017-12-08.53018 1.000E-05 12:02:57.260 1.500E-01 0.500 F 0.298 -0.258 +05° 27' 55.20" 1.000E-01 0.500 F 0.192 0.438 19.3 V 0.70 0.56 o 691 1.05 Yes Yes
2017UE45 O C 2017-12-08.53701 1.000E-05 12:02:59.140 1.500E-01 0.500 F 0.298 -0.197 +05° 27' 04.10" 1.000E-01 0.500 F 0.192 0.498 19.2 V 0.70 0.46 o 691 1.11 Yes Yes
2017SS19 O C H 2017-12-09.06860 1.000E-05 23:31:15.540 1.500E-01 0.500 F -0.319 0.364 -04° 16' 47.20" 1.000E-01 0.500 F 0.301 -0.133 19.7 R 0.70 0.47 o 691 0.78 Yes Yes
2017SS19 O C H 2017-12-09.08326 1.000E-05 23:31:19.200 1.500E-01 0.500 F -0.319 -0.097 -04° 16' 52.70" 1.000E-01 0.500 F 0.301 -0.132 19.6 R 0.70 0.37 o 691 0.33 Yes Yes
2017SS19 O C H 2017-12-09.09792 1.000E-05 23:31:22.940 1.500E-01 0.500 F -0.319 0.614 -04° 16' 57.90" 1.000E-01 0.500 F 0.301 0.153 19.1 R 0.70 -0.13 o 691 1.28 Yes Yes
2006XY O C H 2017-12-09.11817 1.000E-05 00:32:16.880 1.500E-01 0.500 F -0.200 -0.292 +10° 40' 22.00" 1.000E-01 0.500 F 0.273 0.159 17.0 R 0.70 -0.33 o 691 0.68 Yes Yes
2006XY O C H 2017-12-09.13457 1.000E-05 00:32:30.740 1.500E-01 0.500 F -0.200 0.491 +10° 38' 35.70" 1.000E-01 0.500 F 0.273 -0.620 18.2 R 0.70 0.87 o 691 1.61 Yes Yes
2006XY O C H 2017-12-09.15153 1.000E-05 00:32:45.110 1.500E-01 0.500 F -0.200 0.337 +10° 36' 46.60" 1.000E-01 0.500 F 0.273 0.840 18.4 R 0.70 1.08 o 691 1.83 Yes Yes
2013AP60 O C 2017-12-09.16261 1.000E-05 01:14:48.430 1.500E-01 0.500 F -0.210 -0.193 +22° 32' 20.20" 1.000E-01 0.500 F 0.298 -0.097 o 691 0.43 Yes No
1950DA O C 2017-12-09.16848 1.000E-05 01:18:04.800 1.500E-01 0.500 F -0.201 -0.394 +21° 53' 00.80" 1.000E-01 0.500 F 0.368 -0.532 o 691 1.32 Yes No
2013AP60 O C 2017-12-09.19370 1.000E-05 01:14:51.270 1.500E-01 0.500 F -0.210 -0.188 +22° 31' 45.60" 1.000E-01 0.500 F 0.298 -0.030 o 691 0.38 Yes No
1950DA O C 2017-12-09.19930 1.000E-05 01:18:03.990 1.500E-01 0.500 F -0.201 0.168 +21° 52' 51.30" 1.000E-01 0.500 F 0.368 -0.178 o 691 0.49 Yes No
2013AP60 O C 2017-12-09.21659 1.000E-05 01:14:53.370 1.500E-01 0.500 F -0.210 -0.106 +22° 31' 20.30" 1.000E-01 0.500 F 0.298 0.235 o 691 0.52 Yes No
1950DA O C 2017-12-09.22202 1.000E-05 01:18:03.320 1.500E-01 0.500 F -0.201 -0.481 +21° 52' 43.50" 1.000E-01 0.500 F 0.368 -0.684 o 691 1.67 Yes No
2017XB1 O C H 2017-12-09.24931 1.000E-05 03:28:28.460 1.500E-01 0.500 F -0.232 0.012 -07° 04' 39.30" 1.000E-01 0.500 F 0.023 -0.259 20.0 R 0.70 -0.05 o 691 0.52 Yes Yes
2017XB1 O C H 2017-12-09.26473 1.000E-05 03:28:27.140 1.500E-01 0.500 F -0.232 0.118 -07° 04' 05.00" 1.000E-01 0.500 F 0.023 0.034 20.1 R 0.70 0.05 o 691 0.25 Yes Yes
2017XB1 O C H 2017-12-09.28022 1.000E-05 03:28:25.820 1.500E-01 0.500 F -0.232 0.259 -07° 03' 30.60" 1.000E-01 0.500 F 0.023 0.205 20.0 R 0.70 -0.05 o 691 0.67 Yes Yes
2017WX12 O C H 2017-12-09.28208 1.000E-05 04:05:42.600 1.500E-01 0.500 F -0.247 0.133 -04° 33' 40.50" 1.000E-01 0.500 F 0.211 0.062 17.4 R 0.70 -0.32 o 691 0.29 Yes Yes
2017SM16 O C H 2017-12-09.29728 1.000E-05 04:18:44.530 1.500E-01 0.500 F -0.259 -0.496 +13° 56' 13.00" 1.000E-01 0.500 F 0.204 -0.324 21.2 R 0.70 0.39 o 691 1.22 Yes Yes
2017WX12 O C H 2017-12-09.29991 1.000E-05 04:05:42.020 1.500E-01 0.500 F -0.247 -0.017 -04° 32' 16.10" 1.000E-01 0.500 F 0.211 0.023 17.2 R 0.70 -0.52 o 691 0.06 Yes Yes
2017SM16 O C H 2017-12-09.31531 1.000E-05 04:18:44.750 1.500E-01 0.500 F -0.259 -0.038 +13° 56' 13.50" 1.000E-01 0.500 F 0.204 -0.258 21.3 R 0.70 0.49 o 691 0.53 Yes Yes
2017WX12 O C H 2017-12-09.31812 1.000E-05 04:05:41.460 1.500E-01 0.500 F -0.247 0.067 -04° 30' 49.30" 1.000E-01 0.500 F 0.211 0.236 17.5 R 0.70 -0.22 o 691 0.49 Yes Yes
2017SM16 O C H 2017-12-09.33371 1.000E-05 04:18:44.970 1.500E-01 0.500 F -0.259 0.298 +13° 56' 13.80" 1.000E-01 0.500 F 0.204 -0.352 21.1 R 0.70 0.29 o 691 0.93 Yes Yes
2006OD7 O C 2017-12-12.46848 1.000E-05 08:50:16.370 1.500E-01 0.500 F -0.026 -0.040 -12° 12' 56.60" 1.000E-01 0.500 F 0.014 -0.080 20.7 V 0.70 -0.32 o 691 0.18 Yes Yes
2006OD7 O C 2017-12-12.47300 1.000E-05 08:50:16.290 1.500E-01 0.500 F -0.026 0.008 -12° 12' 53.20" 1.000E-01 0.500 F 0.014 -0.067 20.7 V 0.70 -0.32 o 691 0.13 Yes Yes
2006OD7 O C 2017-12-12.47753 1.000E-05 08:50:16.190 1.500E-01 0.500 F -0.026 -0.235 -12° 12' 49.90" 1.000E-01 0.500 F 0.014 -0.164 20.6 V 0.70 -0.42 o 691 0.57 Yes Yes
2017WS1 O C 2017-12-12.48186 1.000E-05 10:07:44.530 1.500E-01 0.500 F 0.025 -0.141 -14° 00' 26.00" 1.000E-01 0.500 F -0.037 0.030 18.2 R 0.70 -0.23 o 691 0.30 Yes Yes
2017WS1 O C 2017-12-12.48384 1.000E-05 10:07:45.560 1.500E-01 0.500 F 0.025 -0.170 -14° 00' 46.00" 1.000E-01 0.500 F -0.037 0.203 18.5 R 0.70 0.07 o 691 0.55 Yes Yes
2017WS1 O C 2017-12-12.48581 1.000E-05 10:07:46.590 1.500E-01 0.500 F 0.025 -0.123 -14° 01' 06.40" 1.000E-01 0.500 F -0.037 -0.129 18.5 R 0.70 0.07 o 691 0.37 Yes Yes
2017WX13 O C K 2017-12-12.49192 1.000E-05 07:12:09.780 1.500E-01 0.500 F -0.126 0.190 +28° 32' 09.90" 1.000E-01 0.500 F 0.211 -0.097 o 691 0.45 Yes No
2017WX13 O C K 2017-12-12.49746 1.000E-05 07:12:09.070 1.500E-01 0.500 F -0.126 -0.176 +28° 32' 15.60" 1.000E-01 0.500 F 0.211 -0.146 o 691 0.48 Yes No
2017WX13 O C K 2017-12-12.50299 1.000E-05 07:12:08.380 1.500E-01 0.500 F -0.126 -0.346 +28° 32' 21.90" 1.000E-01 0.500 F 0.211 0.445 o 691 1.18 Yes No
2017WP1 O C K 2017-12-12.50988 1.000E-05 09:16:18.340 1.500E-01 0.500 F 0.068 0.504 +12° 18' 45.10" 1.000E-01 0.500 F 0.232 0.040 o 691 1.05 Yes No
2017WP1 O C K 2017-12-12.51295 1.000E-05 09:16:20.490 1.500E-01 0.500 F 0.068 -0.032 +12° 18' 39.30" 1.000E-01 0.500 F 0.232 -0.240 o 691 0.50 Yes No
2017WP1 O C K 2017-12-12.51601 1.000E-05 09:16:22.690 1.500E-01 0.500 F 0.068 0.261 +12° 18' 34.30" 1.000E-01 0.500 F 0.232 0.273 o 691 0.78 Yes No
2017XD O C 2017-12-12.52272 1.000E-05 11:02:55.370 1.500E-01 0.500 F 0.268 -0.344 -24° 06' 54.70" 1.000E-01 0.500 F 0.022 -0.038 19.5 V 0.70 -0.13 o 691 0.69 Yes Yes
2017XD O C 2017-12-12.52548 1.000E-05 11:02:56.060 1.500E-01 0.500 F 0.268 -0.104 -24° 06' 58.00" 1.000E-01 0.500 F 0.022 0.073 19.3 V 0.70 -0.33 o 691 0.26 Yes Yes
2017XD O C 2017-12-12.52823 1.000E-05 11:02:56.730 1.500E-01 0.500 F 0.268 -0.106 -24° 07' 01.60" 1.000E-01 0.500 F 0.022 -0.130 19.5 V 0.70 -0.13 o 691 0.34 Yes Yes
2017VV14 O C K 2017-12-12.54462 1.000E-05 07:23:40.190 1.500E-01 0.500 F -0.071 0.367 +30° 55' 27.00" 1.000E-01 0.500 F 0.263 0.230 o 691 0.88 Yes No
2017VV14 O C K 2017-12-12.54744 1.000E-05 07:23:39.650 1.500E-01 0.500 F -0.071 -0.163 +30° 55' 28.70" 1.000E-01 0.500 F 0.263 -0.143 o 691 0.44 Yes No
2017VV14 O C K 2017-12-12.55024 1.000E-05 07:23:39.170 1.500E-01 0.500 F -0.071 0.033 +30° 55' 30.80" 1.000E-01 0.500 F 0.263 -0.100 o 691 0.21 Yes No

[1-200] [201-400] [401-600] [601-800] [801-1000] [1001-1200] [1201-1400] [1401-1600] [1601-1800] [1801-2000] [2001-2200] [2201-2400] [2401-2600] [2601-2800] [2801-3000] [3001-3200] [3201-3400] [3401-3600] [3601-3800] [3801-4000] [4001-4200] [4201-4400] [4401-4600] [4601-4800] [4801-5000] [5001-5200] [5201-5400] [5401-5600] [5601-5800] [5801-6000] [6001-6200] [6201-6400] [6401-6600] [6601-6800] [6801-7000] [7001-7200] [7201-7400] [7401-7600] [7601-7800] [7801-8000] [8001-8200] [8201-8400] [8401-8600] [8601-8800] [8801-9000] [9001-9200] [9201-9400] [9401-9600] [9601-9800] [9801-10000] [10001-10200] [10201-10400] [10401-10600] [10601-10800] [10801-11000] [11001-11200] [11201-11400] [11401-11600] [11601-11800] [11801-12000] [12001-12200] [12201-12400] [12401-12600] [12601-12800] [12801-13000] [13001-13200] [13201-13400] [13401-13600] [13601-13800] [13801-14000] [14001-14200] [14201-14400] [14401-14600] [14601-14800] [14801-15000] [15001-15200] [15201-15400] [15401-15600] [15601-15800] [15801-16000] [16001-16200] [16201-16400] [16401-16600] [16601-16800] [16801-17000] [17001-17200] [17201-17400] [17401-17600] [17601-17800] [17801-18000] [18001-18200] [18201-18400] [18401-18600] [18601-18800] [18801-19000] [19001-19200] [19201-19400] [19401-19600] [19601-19800] [19801-20000] [20001-20200] [20201-20400] [20401-20600] [20601-20800] [20801-21000] [21001-21200] [21201-21400] [21401-21600] [21601-21800] [21801-22000] [22001-22200] [22201-22400] [22401-22600] [22601-22800] [22801-23000] [23001-23200] [23201-23400] [23401-23600] [23601-23800] [23801-24000] [24001-24200] [24201-24400] [24401-24600] [24601-24800] [24801-25000] [25001-25200] [25201-25400] [25401-25600] [25601-25800] [25801-26000] [26001-26200] [26201-26400] [26401-26600] [26601-26800] [26801-27000] [27001-27200] [27201-27400] [27401-27600] [27601-27800] [27801-28000] [28001-28200] [28201-28400] [28401-28600] [28601-28800] [28801-29000] [29001-29200] [29201-29400] [29401-29600] [29601-29800] [29801-30000] [30001-30200] [30201-30400] [30401-30600] [30601-30800] [30801-31000] [31001-31200] [31201-31400] [31401-31600] [31601-31800] [31801-32000] [32001-32200] [32201-32400] [32401-32600] [32601-32800] [32801-33000] [33001-33200] [33201-33400] [33401-33600] [33601-33800] [33801-34000] [34001-34200] [34201-34400] [34401-34600] [34601-34800] [34801-35000] [35001-35200] [35201-35400] [35401-35600] [35601-35800] [35801-36000] [36001-36200] [36201-36400] [36401-36600] [36601-36800] [36801-37000] [37001-37200] [37201-37400] [37401-37600] [37601-37800] [37801-38000] [38001-38200] [38201-38400] [38401-38600] [38601-38800] [38801-39000] [39001-39200] [39201-39400] [39401-39600] [39601-39800] [39801-40000] [40001-40200] [40201-40400] [40401-40600] [40601-40800] [40801-41000] [41001-41200] [41201-41400] [41401-41600] [41601-41800] [41801-42000] [42001-42200] [42201-42400] [42401-42600] [42601-42800] [42801-43000] [43001-43200] [43201-43400] [43401-43600] [43601-43800] [43801-44000] [44001-44200] [44201-44400] [44401-44600] [44601-44800] [44801-45000] [45001-45200] [45201-45400] [45401-45600] [45601-45800] [45801-46000] [46001-46200] [46201-46400] [46401-46600] [46601-46800] [46801-47000] [47001-47200] [47201-47400] [47401-47600] [47601-47800] [47801-48000] [48001-48200] [48201-48400] [48401-48600] [48601-48800] [48801-49000] [49001-49200] [49201-49400] [49401-49600] [49601-49800] [49801-50000] [50001-50200] [50201-50388]